Аэропорт: Ровно. Ровно

ICAO: UKLR

METAR:
2019/05/26 14:00
UKLR 261400Z 29005MPS 250V320 9999 SCT033 21/13 Q1013 R29/090070 NOSIG
METAR:
2019/01/25 06:18
TAF TAF UKLR 250512Z 2506/2615 09007G12MPS 9999 BKN010 
      TEMPO 2606/2615 12009G14MPS 2100 -SN BLSN BKN005